Jack Brusco — WDC3066 — position and weather

sailwx.info

Track history (hours):
 
Tides and Currents Weather Stations Pressure Air Temp Water Temp Dewpoint Dewpoint Depression Visibility Wind Speed Wind Dir Waves Ship Positions

Jack Brusco

Owner: Brusco Tug & Barge, Inc., Longview, WA. More information available from US FCC via Universal Licensing System and Coast Guard Vessel Documentation Center.

Last reported at 2016-Dec-10 16:33 UTC. Time now 2016-Dec-10 16:45 UTC.
Position N 46°12' W 123°23'.

Length 36 m; draft 5.2 m.

Type: Tug. MMSI: 3699086.

Date/timePositionNaut miles runAvg speedWind from/ knotsBaromVisibWave heightAir tempDewpointWater temp
2016-Dec-10 16:33N 46°12' W 123°23'0 0.0
2016-Dec-10 15:33N 46°12' W 123°23'0 0.0
2016-Dec-10 14:33N 46°12' W 123°23'0 0.0
2016-Dec-10 13:33N 46°12' W 123°23'0 0.0
2016-Dec-10 12:33N 46°12' W 123°23'0 0.0
2016-Dec-10 11:33N 46°12' W 123°23'0 0.0
2016-Dec-10 10:34N 46°12' W 123°23'0 0.0
2016-Dec-10 09:33N 46°12' W 123°23'0 0.0
2016-Dec-10 08:33N 46°12' W 123°23'0 0.0
2016-Dec-10 07:33N 46°12' W 123°23'0 0.0
2016-Dec-10 06:33N 46°12' W 123°23'0 0.0
2016-Dec-10 05:33N 46°12' W 123°23'0 0.0
2016-Dec-10 04:33N 46°12' W 123°23'0 0.0
2016-Dec-10 03:33N 46°12' W 123°23'0 0.0
2016-Dec-10 02:33N 46°12' W 123°23'0 0.0
2016-Dec-10 01:33N 46°12' W 123°23'0 0.0
2016-Dec-10 00:33N 46°12' W 123°23'0 0.0
2016-Dec-09 23:33N 46°12' W 123°23'0 0.0
2016-Dec-09 22:33N 46°12' W 123°23'0 0.0
2016-Dec-09 21:33N 46°12' W 123°23'0 0.0
2016-Dec-09 20:33N 46°12' W 123°23'0 0.0
2016-Dec-09 19:33N 46°12' W 123°23'0 0.0
2016-Dec-09 18:33N 46°12' W 123°23'0 0.0
2016-Dec-09 17:34N 46°12' W 123°23'6 5.9
2016-Dec-09 16:34N 46°16' W 123°29'1010.4
2016-Dec-09 15:33N 46°14' W 123°44'1212.1
2016-Dec-09 14:34N 46°15' W 124°01'9 9.4
2016-Dec-09 13:33N 46°23' W 124°08'1312.8
2016-Dec-09 12:33N 46°36' W 124°10'1212.3
2016-Dec-09 11:33N 46°49' W 124°11'7 2.5
2016-Dec-09 08:33N 46°56' W 124°13'7 0.6
2016-Dec-08 20:19N 47°03' W 124°14'1113.7
2016-Dec-08 19:33N 46°52' W 124°12'1413.8
2016-Dec-08 18:34N 46°39' W 124°11'1414.0
2016-Dec-08 17:33N 46°25' W 124°09'1211.7
2016-Dec-08 16:34N 46°15' W 123°60'1211.5
2016-Dec-08 15:34N 46°14' W 123°43'1211.9
2016-Dec-08 14:34N 46°15' W 123°26'3 3.0
2016-Dec-08 13:31N 46°12' W 123°23'0 0.0
2016-Dec-08 12:34N 46°12' W 123°23'0 0.0
2016-Dec-08 11:29N 46°12' W 123°23'0 0.0
2016-Dec-08 10:27N 46°12' W 123°23'0 0.0
2016-Dec-08 09:29N 46°12' W 123°23'0 0.0
2016-Dec-08 08:30N 46°12' W 123°23'0 0.0
2016-Dec-08 07:28N 46°12' W 123°23'0 0.0
2016-Dec-08 06:34N 46°12' W 123°23'0 0.0
2016-Dec-08 05:33N 46°12' W 123°23'0 0.0
2016-Dec-08 04:32N 46°12' W 123°23'0 0.0
2016-Dec-08 03:30N 46°12' W 123°23'0 0.0
2016-Dec-08 02:32N 46°12' W 123°23'0 0.0
2016-Dec-08 01:31N 46°12' W 123°23'0 0.0
2016-Dec-08 00:29N 46°12' W 123°23'0 0.0
2016-Dec-07 23:33N 46°12' W 123°23'0 0.0
2016-Dec-07 22:34N 46°12' W 123°23'1 1.0
2016-Dec-07 21:33N 46°12' W 123°25'8 8.3
2016-Dec-07 20:34N 46°15' W 123°36'1111.2
2016-Dec-07 19:33N 46°12' W 123°51'10 9.6
2016-Dec-07 18:33N 46°15' W 124°04'10 9.7
2016-Dec-07 17:33N 46°24' W 124°09'1413.7
2016-Dec-07 16:33N 46°38' W 124°11'1414.1
2016-Dec-07 15:33N 46°52' W 124°12'5 1.0
2016-Dec-07 10:33N 46°55' W 124°06'0 0.0
2016-Dec-07 05:30N 46°55' W 124°06'0 0.0
2016-Dec-07 00:22N 46°55' W 124°07'0 0.1
2016-Dec-06 16:33N 46°55' W 124°06'1 0.2
2016-Dec-06 11:33N 46°55' W 124°07'0 0.0
2016-Dec-06 05:24N 46°55' W 124°07'1 0.1
2016-Dec-06 00:05N 46°55' W 124°06'1 0.1
2016-Dec-05 16:32N 46°55' W 124°08'1 0.2
2016-Dec-05 12:17N 46°55' W 124°06'1 0.1
2016-Dec-05 06:33N 46°55' W 124°07'1 0.1
2016-Dec-04 22:32N 46°55' W 124°06'1 0.1
2016-Dec-04 13:06N 46°55' W 124°08'0 0.1
2016-Dec-04 07:32N 46°55' W 124°07'0 0.1
2016-Dec-04 03:07N 46°55' W 124°08'  
2016-Dec-01 19:18N 46°55' W 124°06'0 0.5
2016-Dec-01 18:33N 46°55' W 124°07'1 0.1
2016-Dec-01 04:16N 46°55' W 124°08'  
Track history (hours):
 
Tides and Currents Weather Stations Pressure Air Temp Water Temp Dewpoint Dewpoint Depression Visibility Wind Speed Wind Dir Waves Ship Positions

Jack Brusco

Owner: Brusco Tug & Barge, Inc., Longview, WA. More information available from US FCC via Universal Licensing System and Coast Guard Vessel Documentation Center.

Last reported at 2016-Dec-10 16:33 UTC. Time now 2016-Dec-10 16:45 UTC.
Position N 46°12' W 123°23'.

Length 36 m; draft 5.2 m.

Type: Tug. MMSI: 3699086.

Date/timePositionNaut miles runAvg speedWind from/ knotsBaromVisibWave heightAir tempDewpointWater temp
2016-Dec-10 16:33N 46°12' W 123°23'0 0.0
2016-Dec-10 15:33N 46°12' W 123°23'0 0.0
2016-Dec-10 14:33N 46°12' W 123°23'0 0.0
2016-Dec-10 13:33N 46°12' W 123°23'0 0.0
2016-Dec-10 12:33N 46°12' W 123°23'0 0.0
2016-Dec-10 11:33N 46°12' W 123°23'0 0.0
2016-Dec-10 10:34N 46°12' W 123°23'0 0.0
2016-Dec-10 09:33N 46°12' W 123°23'0 0.0
2016-Dec-10 08:33N 46°12' W 123°23'0 0.0
2016-Dec-10 07:33N 46°12' W 123°23'0 0.0
2016-Dec-10 06:33N 46°12' W 123°23'0 0.0
2016-Dec-10 05:33N 46°12' W 123°23'0 0.0
2016-Dec-10 04:33N 46°12' W 123°23'0 0.0
2016-Dec-10 03:33N 46°12' W 123°23'0 0.0
2016-Dec-10 02:33N 46°12' W 123°23'0 0.0
2016-Dec-10 01:33N 46°12' W 123°23'0 0.0
2016-Dec-10 00:33N 46°12' W 123°23'0 0.0
2016-Dec-09 23:33N 46°12' W 123°23'0 0.0
2016-Dec-09 22:33N 46°12' W 123°23'0 0.0
2016-Dec-09 21:33N 46°12' W 123°23'0 0.0
2016-Dec-09 20:33N 46°12' W 123°23'0 0.0
2016-Dec-09 19:33N 46°12' W 123°23'0 0.0
2016-Dec-09 18:33N 46°12' W 123°23'0 0.0
2016-Dec-09 17:34N 46°12' W 123°23'6 5.9
2016-Dec-09 16:34N 46°16' W 123°29'1010.4
2016-Dec-09 15:33N 46°14' W 123°44'1212.1
2016-Dec-09 14:34N 46°15' W 124°01'9 9.4
2016-Dec-09 13:33N 46°23' W 124°08'1312.8
2016-Dec-09 12:33N 46°36' W 124°10'1212.3
2016-Dec-09 11:33N 46°49' W 124°11'7 2.5
2016-Dec-09 08:33N 46°56' W 124°13'7 0.6
2016-Dec-08 20:19N 47°03' W 124°14'1113.7
2016-Dec-08 19:33N 46°52' W 124°12'1413.8
2016-Dec-08 18:34N 46°39' W 124°11'1414.0
2016-Dec-08 17:33N 46°25' W 124°09'1211.7
2016-Dec-08 16:34N 46°15' W 123°60'1211.5
2016-Dec-08 15:34N 46°14' W 123°43'1211.9
2016-Dec-08 14:34N 46°15' W 123°26'3 3.0
2016-Dec-08 13:31N 46°12' W 123°23'0 0.0
2016-Dec-08 12:34N 46°12' W 123°23'0 0.0
2016-Dec-08 11:29N 46°12' W 123°23'0 0.0
2016-Dec-08 10:27N 46°12' W 123°23'0 0.0
2016-Dec-08 09:29N 46°12' W 123°23'0 0.0
2016-Dec-08 08:30N 46°12' W 123°23'0 0.0
2016-Dec-08 07:28N 46°12' W 123°23'0 0.0
2016-Dec-08 06:34N 46°12' W 123°23'0 0.0
2016-Dec-08 05:33N 46°12' W 123°23'0 0.0
2016-Dec-08 04:32N 46°12' W 123°23'0 0.0
2016-Dec-08 03:30N 46°12' W 123°23'0 0.0
2016-Dec-08 02:32N 46°12' W 123°23'0 0.0
2016-Dec-08 01:31N 46°12' W 123°23'0 0.0
2016-Dec-08 00:29N 46°12' W 123°23'0 0.0
2016-Dec-07 23:33N 46°12' W 123°23'0 0.0
2016-Dec-07 22:34N 46°12' W 123°23'1 1.0
2016-Dec-07 21:33N 46°12' W 123°25'8 8.3
2016-Dec-07 20:34N 46°15' W 123°36'1111.2
2016-Dec-07 19:33N 46°12' W 123°51'10 9.6
2016-Dec-07 18:33N 46°15' W 124°04'10 9.7
2016-Dec-07 17:33N 46°24' W 124°09'1413.7
2016-Dec-07 16:33N 46°38' W 124°11'1414.1
2016-Dec-07 15:33N 46°52' W 124°12'5 1.0
2016-Dec-07 10:33N 46°55' W 124°06'0 0.0
2016-Dec-07 05:30N 46°55' W 124°06'0 0.0
2016-Dec-07 00:22N 46°55' W 124°07'0 0.1
2016-Dec-06 16:33N 46°55' W 124°06'1 0.2
2016-Dec-06 11:33N 46°55' W 124°07'0 0.0
2016-Dec-06 05:24N 46°55' W 124°07'1 0.1
2016-Dec-06 00:05N 46°55' W 124°06'1 0.1
2016-Dec-05 16:32N 46°55' W 124°08'1 0.2
2016-Dec-05 12:17N 46°55' W 124°06'1 0.1
2016-Dec-05 06:33N 46°55' W 124°07'1 0.1
2016-Dec-04 22:32N 46°55' W 124°06'1 0.1
2016-Dec-04 13:06N 46°55' W 124°08'0 0.1
2016-Dec-04 07:32N 46°55' W 124°07'0 0.1
2016-Dec-04 03:07N 46°55' W 124°08'  
2016-Dec-01 19:18N 46°55' W 124°06'0 0.5
2016-Dec-01 18:33N 46°55' W 124°07'1 0.1
2016-Dec-01 04:16N 46°55' W 124°08'  

Dump ship's entire track history